sensor_id;sensor_type;location;lat;lon;timestamp;P1;durP1;ratioP1;P2;durP2;ratioP2
16900;SDS011;8567;52.540;6.434;2022-07-01T00:01:36;5.45;;;5.15;;
16900;SDS011;8567;52.540;6.434;2022-07-01T00:04:05;5.10;;;4.90;;
16900;SDS011;8567;52.540;6.434;2022-07-01T00:06:32;5.32;;;5.13;;
16900;SDS011;8567;52.540;6.434;2022-07-01T00:08:59;5.22;;;5.03;;
16900;SDS011;8567;52.540;6.434;2022-07-01T00:11:26;5.43;;;5.07;;
16900;SDS011;8567;52.540;6.434;2022-07-01T00:13:53;5.43;;;5.22;;
16900;SDS011;8567;52.540;6.434;2022-07-01T00:16:19;5.18;;;4.97;;
16900;SDS011;8567;52.540;6.434;2022-07-01T00:18:47;5.47;;;5.18;;
16900;SDS011;8567;52.540;6.434;2022-07-01T00:21:14;5.35;;;5.15;;
16900;SDS011;8567;52.540;6.434;2022-07-01T00:23:41;5.13;;;4.93;;
16900;SDS011;8567;52.540;6.434;2022-07-01T00:26:08;5.32;;;5.13;;
16900;SDS011;8567;52.540;6.434;2022-07-01T00:28:35;5.63;;;5.35;;
16900;SDS011;8567;52.540;6.434;2022-07-01T00:31:02;5.43;;;5.13;;
16900;SDS011;8567;52.540;6.434;2022-07-01T00:33:28;5.20;;;5.00;;
16900;SDS011;8567;52.540;6.434;2022-07-01T00:35:57;5.22;;;5.00;;
16900;SDS011;8567;52.540;6.434;2022-07-01T00:38:25;5.68;;;5.38;;
16900;SDS011;8567;52.540;6.434;2022-07-01T00:40:51;5.82;;;5.53;;
16900;SDS011;8567;52.540;6.434;2022-07-01T00:43:19;4.93;;;4.72;;
16900;SDS011;8567;52.540;6.434;2022-07-01T00:45:48;5.68;;;5.38;;
16900;SDS011;8567;52.540;6.434;2022-07-01T00:48:15;5.07;;;4.88;;
16900;SDS011;8567;52.540;6.434;2022-07-01T00:50:43;5.80;;;5.50;;
16900;SDS011;8567;52.540;6.434;2022-07-01T00:53:11;5.20;;;5.00;;
16900;SDS011;8567;52.540;6.434;2022-07-01T00:55:38;5.47;;;5.18;;
16900;SDS011;8567;52.540;6.434;2022-07-01T00:58:05;5.68;;;5.45;;
16900;SDS011;8567;52.540;6.434;2022-07-01T01:00:33;5.53;;;5.32;;
16900;SDS011;8567;52.540;6.434;2022-07-01T01:03:01;5.30;;;5.10;;
16900;SDS011;8567;52.540;6.434;2022-07-01T01:05:28;5.20;;;4.95;;
16900;SDS011;8567;52.540;6.434;2022-07-01T01:07:55;5.63;;;5.32;;
16900;SDS011;8567;52.540;6.434;2022-07-01T01:10:24;5.13;;;4.93;;
16900;SDS011;8567;52.540;6.434;2022-07-01T01:12:52;5.57;;;5.28;;
16900;SDS011;8567;52.540;6.434;2022-07-01T01:15:20;5.32;;;5.13;;
16900;SDS011;8567;52.540;6.434;2022-07-01T01:17:47;5.20;;;4.90;;
16900;SDS011;8567;52.540;6.434;2022-07-01T01:20:16;5.03;;;4.82;;
16900;SDS011;8567;52.540;6.434;2022-07-01T01:22:44;5.60;;;5.32;;
16900;SDS011;8567;52.540;6.434;2022-07-01T01:25:12;5.00;;;4.80;;
16900;SDS011;8567;52.540;6.434;2022-07-01T01:27:39;5.18;;;4.88;;
16900;SDS011;8567;52.540;6.434;2022-07-01T01:30:06;5.30;;;5.10;;
16900;SDS011;8567;52.540;6.434;2022-07-01T01:32:35;5.18;;;4.97;;
16900;SDS011;8567;52.540;6.434;2022-07-01T01:35:02;5.30;;;5.10;;
16900;SDS011;8567;52.540;6.434;2022-07-01T01:37:29;5.43;;;5.13;;
16900;SDS011;8567;52.540;6.434;2022-07-01T01:39:57;5.38;;;5.07;;
16900;SDS011;8567;52.540;6.434;2022-07-01T01:42:24;5.18;;;4.97;;
16900;SDS011;8567;52.540;6.434;2022-07-01T01:44:51;5.07;;;4.88;;
16900;SDS011;8567;52.540;6.434;2022-07-01T01:47:19;4.75;;;4.55;;
16900;SDS011;8567;52.540;6.434;2022-07-01T01:49:46;5.10;;;4.90;;
16900;SDS011;8567;52.540;6.434;2022-07-01T01:52:13;4.97;;;4.78;;
16900;SDS011;8567;52.540;6.434;2022-07-01T01:54:39;5.25;;;5.05;;
16900;SDS011;8567;52.540;6.434;2022-07-01T01:57:08;5.68;;;5.38;;
16900;SDS011;8567;52.540;6.434;2022-07-01T01:59:34;5.38;;;5.07;;
16900;SDS011;8567;52.540;6.434;2022-07-01T02:02:02;5.25;;;4.95;;
16900;SDS011;8567;52.540;6.434;2022-07-01T02:04:29;5.25;;;5.05;;
16900;SDS011;8567;52.540;6.434;2022-07-01T02:06:56;5.40;;;5.18;;
16900;SDS011;8567;52.540;6.434;2022-07-01T02:09:23;5.20;;;5.00;;
16900;SDS011;8567;52.540;6.434;2022-07-01T02:11:49;5.75;;;5.45;;
16900;SDS011;8567;52.540;6.434;2022-07-01T02:14:19;5.13;;;4.93;;
16900;SDS011;8567;52.540;6.434;2022-07-01T02:16:45;5.40;;;5.15;;
16900;SDS011;8567;52.540;6.434;2022-07-01T02:19:12;5.15;;;4.95;;
16900;SDS011;8567;52.540;6.434;2022-07-01T02:21:39;5.35;;;5.10;;
16900;SDS011;8567;52.540;6.434;2022-07-01T02:24:06;5.88;;;5.57;;
16900;SDS011;8567;52.540;6.434;2022-07-01T02:26:34;6.05;;;5.65;;
16900;SDS011;8567;52.540;6.434;2022-07-01T02:29:01;5.45;;;5.18;;
16900;SDS011;8567;52.540;6.434;2022-07-01T02:31:30;5.45;;;5.25;;
16900;SDS011;8567;52.540;6.434;2022-07-01T02:33:56;5.63;;;5.32;;
16900;SDS011;8567;52.540;6.434;2022-07-01T02:36:23;5.45;;;5.25;;
16900;SDS011;8567;52.540;6.434;2022-07-01T02:38:50;5.30;;;5.10;;
16900;SDS011;8567;52.540;6.434;2022-07-01T02:41:17;5.75;;;5.45;;
16900;SDS011;8567;52.540;6.434;2022-07-01T02:43:44;5.60;;;5.30;;
16900;SDS011;8567;52.540;6.434;2022-07-01T02:46:10;6.45;;;6.15;;
16900;SDS011;8567;52.540;6.434;2022-07-01T02:48:38;5.78;;;5.47;;
16900;SDS011;8567;52.540;6.434;2022-07-01T02:51:08;5.82;;;5.53;;
16900;SDS011;8567;52.540;6.434;2022-07-01T02:53:35;5.90;;;5.60;;
16900;SDS011;8567;52.540;6.434;2022-07-01T02:56:02;5.88;;;5.57;;
16900;SDS011;8567;52.540;6.434;2022-07-01T02:58:29;5.78;;;5.47;;
16900;SDS011;8567;52.540;6.434;2022-07-01T03:00:55;5.97;;;5.68;;
16900;SDS011;8567;52.540;6.434;2022-07-01T03:03:22;6.45;;;6.07;;
16900;SDS011;8567;52.540;6.434;2022-07-01T03:05:50;5.75;;;5.45;;
16900;SDS011;8567;52.540;6.434;2022-07-01T03:08:17;5.88;;;5.57;;
16900;SDS011;8567;52.540;6.434;2022-07-01T03:10:44;5.93;;;5.63;;
16900;SDS011;8567;52.540;6.434;2022-07-01T03:13:10;5.90;;;5.60;;
16900;SDS011;8567;52.540;6.434;2022-07-01T03:15:37;5.97;;;5.40;;
16900;SDS011;8567;52.540;6.434;2022-07-01T03:18:04;5.82;;;5.53;;
16900;SDS011;8567;52.540;6.434;2022-07-01T03:20:31;5.45;;;5.15;;
16900;SDS011;8567;52.540;6.434;2022-07-01T03:22:59;5.50;;;5.20;;
16900;SDS011;8567;52.540;6.434;2022-07-01T03:25:26;6.15;;;5.75;;
16900;SDS011;8567;52.540;6.434;2022-07-01T03:27:53;6.07;;;5.78;;
16900;SDS011;8567;52.540;6.434;2022-07-01T03:30:19;6.28;;;5.97;;
16900;SDS011;8567;52.540;6.434;2022-07-01T03:32:46;6.05;;;5.72;;
16900;SDS011;8567;52.540;6.434;2022-07-01T03:35:13;5.22;;;5.03;;
16900;SDS011;8567;52.540;6.434;2022-07-01T03:37:57;6.22;;;5.93;;
16900;SDS011;8567;52.540;6.434;2022-07-01T03:40:26;5.85;;;5.53;;
16900;SDS011;8567;52.540;6.434;2022-07-01T03:42:52;5.85;;;5.55;;
16900;SDS011;8567;52.540;6.434;2022-07-01T03:45:19;6.05;;;5.75;;
16900;SDS011;8567;52.540;6.434;2022-07-01T03:47:46;6.60;;;6.30;;
16900;SDS011;8567;52.540;6.434;2022-07-01T03:50:14;5.82;;;5.53;;
16900;SDS011;8567;52.540;6.434;2022-07-01T03:52:41;5.85;;;5.55;;
16900;SDS011;8567;52.540;6.434;2022-07-01T03:55:09;6.15;;;5.85;;
16900;SDS011;8567;52.540;6.434;2022-07-01T03:57:36;6.75;;;6.35;;
16900;SDS011;8567;52.540;6.434;2022-07-01T04:00:03;6.10;;;5.80;;
16900;SDS011;8567;52.540;6.434;2022-07-01T04:02:31;6.00;;;5.70;;
16900;SDS011;8567;52.540;6.434;2022-07-01T04:04:57;6.38;;;5.97;;
16900;SDS011;8567;52.540;6.434;2022-07-01T04:07:24;5.90;;;5.60;;
16900;SDS011;8567;52.540;6.434;2022-07-01T04:09:52;6.43;;;6.13;;
16900;SDS011;8567;52.540;6.434;2022-07-01T04:12:20;6.13;;;5.82;;
16900;SDS011;8567;52.540;6.434;2022-07-01T04:14:47;6.50;;;6.10;;
16900;SDS011;8567;52.540;6.434;2022-07-01T04:17:14;6.10;;;5.80;;
16900;SDS011;8567;52.540;6.434;2022-07-01T04:19:40;6.80;;;6.40;;
16900;SDS011;8567;52.540;6.434;2022-07-01T04:22:07;6.18;;;5.88;;
16900;SDS011;8567;52.540;6.434;2022-07-01T04:24:51;6.30;;;5.97;;
16900;SDS011;8567;52.540;6.434;2022-07-01T04:27:19;6.60;;;6.30;;
16900;SDS011;8567;52.540;6.434;2022-07-01T04:29:47;6.57;;;6.22;;
16900;SDS011;8567;52.540;6.434;2022-07-01T04:32:14;6.32;;;5.97;;
16900;SDS011;8567;52.540;6.434;2022-07-01T04:34:40;6.60;;;6.30;;
16900;SDS011;8567;52.540;6.434;2022-07-01T04:37:07;6.05;;;5.75;;
16900;SDS011;8567;52.540;6.434;2022-07-01T04:39:34;6.90;;;6.55;;
16900;SDS011;8567;52.540;6.434;2022-07-01T04:42:01;7.15;;;6.72;;
16900;SDS011;8567;52.540;6.434;2022-07-01T04:44:30;7.10;;;6.70;;
16900;SDS011;8567;52.540;6.434;2022-07-01T04:46:58;6.47;;;6.18;;
16900;SDS011;8567;52.540;6.434;2022-07-01T04:49:26;6.00;;;5.70;;
16900;SDS011;8567;52.540;6.434;2022-07-01T04:51:53;6.38;;;5.97;;
16900;SDS011;8567;52.540;6.434;2022-07-01T04:54:20;6.65;;;6.32;;
16900;SDS011;8567;52.540;6.434;2022-07-01T04:56:47;6.55;;;6.25;;
16900;SDS011;8567;52.540;6.434;2022-07-01T04:59:14;6.82;;;6.43;;
16900;SDS011;8567;52.540;6.434;2022-07-01T05:01:43;6.15;;;5.85;;
16900;SDS011;8567;52.540;6.434;2022-07-01T05:04:11;6.45;;;6.05;;
16900;SDS011;8567;52.540;6.434;2022-07-01T05:06:38;6.47;;;6.18;;
16900;SDS011;8567;52.540;6.434;2022-07-01T05:09:05;6.25;;;5.95;;
16900;SDS011;8567;52.540;6.434;2022-07-01T05:11:32;6.70;;;6.30;;
16900;SDS011;8567;52.540;6.434;2022-07-01T05:13:59;6.70;;;6.40;;
16900;SDS011;8567;52.540;6.434;2022-07-01T05:16:26;6.65;;;6.35;;
16900;SDS011;8567;52.540;6.434;2022-07-01T05:18:54;6.32;;;6.03;;
16900;SDS011;8567;52.540;6.434;2022-07-01T05:21:39;6.43;;;6.13;;
16900;SDS011;8567;52.540;6.434;2022-07-01T05:24:25;6.68;;;6.28;;
16900;SDS011;8567;52.540;6.434;2022-07-01T05:26:55;6.88;;;6.50;;
16900;SDS011;8567;52.540;6.434;2022-07-01T05:29:22;6.20;;;5.90;;
16900;SDS011;8567;52.540;6.434;2022-07-01T05:31:49;7.20;;;6.80;;
16900;SDS011;8567;52.540;6.434;2022-07-01T05:34:17;7.00;;;6.60;;
16900;SDS011;8567;52.540;6.434;2022-07-01T05:36:44;7.20;;;6.80;;
16900;SDS011;8567;52.540;6.434;2022-07-01T05:39:10;6.78;;;6.38;;
16900;SDS011;8567;52.540;6.434;2022-07-01T05:41:37;6.97;;;6.57;;
16900;SDS011;8567;52.540;6.434;2022-07-01T05:44:04;6.90;;;6.50;;
16900;SDS011;8567;52.540;6.434;2022-07-01T05:46:32;7.47;;;7.10;;
16900;SDS011;8567;52.540;6.434;2022-07-01T05:48:58;7.70;;;7.28;;
16900;SDS011;8567;52.540;6.434;2022-07-01T05:51:27;8.05;;;7.55;;
16900;SDS011;8567;52.540;6.434;2022-07-01T05:53:53;8.15;;;7.65;;
16900;SDS011;8567;52.540;6.434;2022-07-01T05:56:21;8.13;;;7.65;;
16900;SDS011;8567;52.540;6.434;2022-07-01T05:58:48;9.07;;;8.50;;
16900;SDS011;8567;52.540;6.434;2022-07-01T06:01:15;8.50;;;8.00;;
16900;SDS011;8567;52.540;6.434;2022-07-01T06:03:41;9.23;;;8.63;;
16900;SDS011;8567;52.540;6.434;2022-07-01T06:06:08;8.07;;;7.68;;
16900;SDS011;8567;52.540;6.434;2022-07-01T06:08:36;7.72;;;7.32;;
16900;SDS011;8567;52.540;6.434;2022-07-01T06:11:03;7.80;;;7.40;;
16900;SDS011;8567;52.540;6.434;2022-07-01T06:13:31;7.13;;;6.72;;
16900;SDS011;8567;52.540;6.434;2022-07-01T06:15:57;7.18;;;6.78;;
16900;SDS011;8567;52.540;6.434;2022-07-01T06:18:24;6.93;;;6.40;;
16900;SDS011;8567;52.540;6.434;2022-07-01T06:20:51;6.35;;;6.05;;
16900;SDS011;8567;52.540;6.434;2022-07-01T06:23:18;7.32;;;6.68;;
16900;SDS011;8567;52.540;6.434;2022-07-01T06:25:46;6.35;;;5.95;;
16900;SDS011;8567;52.540;6.434;2022-07-01T06:28:13;5.95;;;5.65;;
16900;SDS011;8567;52.540;6.434;2022-07-01T06:30:40;6.28;;;5.97;;
16900;SDS011;8567;52.540;6.434;2022-07-01T06:33:08;6.60;;;6.30;;
16900;SDS011;8567;52.540;6.434;2022-07-01T06:35:36;6.32;;;6.03;;
16900;SDS011;8567;52.540;6.434;2022-07-01T06:38:03;5.78;;;5.47;;
16900;SDS011;8567;52.540;6.434;2022-07-01T06:40:30;6.57;;;6.18;;
16900;SDS011;8567;52.540;6.434;2022-07-01T06:42:58;5.65;;;5.35;;
16900;SDS011;8567;52.540;6.434;2022-07-01T06:45:25;5.75;;;5.45;;
16900;SDS011;8567;52.540;6.434;2022-07-01T06:47:51;6.25;;;5.95;;
16900;SDS011;8567;52.540;6.434;2022-07-01T06:50:18;5.60;;;5.30;;
16900;SDS011;8567;52.540;6.434;2022-07-01T06:52:45;6.13;;;5.82;;
16900;SDS011;8567;52.540;6.434;2022-07-01T06:55:12;6.03;;;5.72;;
16900;SDS011;8567;52.540;6.434;2022-07-01T06:57:39;5.55;;;5.25;;
16900;SDS011;8567;52.540;6.434;2022-07-01T07:00:10;6.25;;;5.95;;
16900;SDS011;8567;52.540;6.434;2022-07-01T07:02:38;5.65;;;5.35;;
16900;SDS011;8567;52.540;6.434;2022-07-01T07:05:06;5.80;;;5.50;;
16900;SDS011;8567;52.540;6.434;2022-07-01T07:07:33;5.72;;;5.43;;
16900;SDS011;8567;52.540;6.434;2022-07-01T07:10:00;5.72;;;5.38;;
16900;SDS011;8567;52.540;6.434;2022-07-01T07:12:27;5.68;;;5.38;;
16900;SDS011;8567;52.540;6.434;2022-07-01T07:14:54;5.68;;;5.38;;
16900;SDS011;8567;52.540;6.434;2022-07-01T07:17:22;6.00;;;5.65;;
16900;SDS011;8567;52.540;6.434;2022-07-01T07:19:49;6.05;;;5.75;;
16900;SDS011;8567;52.540;6.434;2022-07-01T07:22:15;6.32;;;5.93;;
16900;SDS011;8567;52.540;6.434;2022-07-01T07:24:42;6.35;;;5.97;;
16900;SDS011;8567;52.540;6.434;2022-07-01T07:27:09;6.38;;;6.07;;
16900;SDS011;8567;52.540;6.434;2022-07-01T07:29:38;6.30;;;5.90;;
16900;SDS011;8567;52.540;6.434;2022-07-01T07:32:04;6.35;;;5.95;;
16900;SDS011;8567;52.540;6.434;2022-07-01T07:34:34;6.05;;;5.65;;
16900;SDS011;8567;52.540;6.434;2022-07-01T07:37:02;6.63;;;6.22;;
16900;SDS011;8567;52.540;6.434;2022-07-01T07:39:29;6.75;;;6.35;;
16900;SDS011;8567;52.540;6.434;2022-07-01T07:41:56;7.15;;;6.75;;
16900;SDS011;8567;52.540;6.434;2022-07-01T07:44:23;6.78;;;6.38;;
16900;SDS011;8567;52.540;6.434;2022-07-01T07:46:49;7.22;;;6.72;;
16900;SDS011;8567;52.540;6.434;2022-07-01T07:49:16;6.82;;;6.43;;
16900;SDS011;8567;52.540;6.434;2022-07-01T07:51:44;6.72;;;6.43;;
16900;SDS011;8567;52.540;6.434;2022-07-01T07:54:11;7.00;;;6.60;;
16900;SDS011;8567;52.540;6.434;2022-07-01T07:56:38;7.53;;;7.03;;
16900;SDS011;8567;52.540;6.434;2022-07-01T07:59:04;7.35;;;6.80;;
16900;SDS011;8567;52.540;6.434;2022-07-01T08:01:32;7.40;;;7.00;;
16900;SDS011;8567;52.540;6.434;2022-07-01T08:03:58;7.82;;;7.43;;
16900;SDS011;8567;52.540;6.434;2022-07-01T08:06:26;8.27;;;7.80;;
16900;SDS011;8567;52.540;6.434;2022-07-01T08:08:55;7.13;;;6.72;;
16900;SDS011;8567;52.540;6.434;2022-07-01T08:11:22;7.55;;;6.95;;
16900;SDS011;8567;52.540;6.434;2022-07-01T08:13:49;6.95;;;6.55;;
16900;SDS011;8567;52.540;6.434;2022-07-01T08:16:15;8.20;;;7.60;;
16900;SDS011;8567;52.540;6.434;2022-07-01T08:18:42;7.07;;;6.78;;
16900;SDS011;8567;52.540;6.434;2022-07-01T08:21:09;7.25;;;6.85;;
16900;SDS011;8567;52.540;6.434;2022-07-01T08:23:36;7.45;;;7.05;;
16900;SDS011;8567;52.540;6.434;2022-07-01T08:26:04;7.70;;;7.15;;
16900;SDS011;8567;52.540;6.434;2022-07-01T08:28:31;7.05;;;6.65;;
16900;SDS011;8567;52.540;6.434;2022-07-01T08:30:57;7.13;;;6.72;;
16900;SDS011;8567;52.540;6.434;2022-07-01T08:33:24;7.20;;;6.80;;
16900;SDS011;8567;52.540;6.434;2022-07-01T08:35:51;6.97;;;6.68;;
16900;SDS011;8567;52.540;6.434;2022-07-01T08:38:18;6.80;;;6.40;;
16900;SDS011;8567;52.540;6.434;2022-07-01T08:40:44;7.22;;;6.72;;
16900;SDS011;8567;52.540;6.434;2022-07-01T08:43:12;7.18;;;6.78;;
16900;SDS011;8567;52.540;6.434;2022-07-01T08:45:39;7.15;;;6.78;;
16900;SDS011;8567;52.540;6.434;2022-07-01T08:48:06;6.97;;;6.60;;
16900;SDS011;8567;52.540;6.434;2022-07-01T08:50:34;7.30;;;6.95;;
16900;SDS011;8567;52.540;6.434;2022-07-01T08:53:03;7.97;;;7.57;;
16900;SDS011;8567;52.540;6.434;2022-07-01T08:55:31;7.25;;;6.90;;
16900;SDS011;8567;52.540;6.434;2022-07-01T08:58:19;7.25;;;6.90;;
16900;SDS011;8567;52.540;6.434;2022-07-01T09:00:46;7.55;;;7.15;;
16900;SDS011;8567;52.540;6.434;2022-07-01T09:03:12;7.50;;;7.05;;
16900;SDS011;8567;52.540;6.434;2022-07-01T09:05:39;7.65;;;7.25;;
16900;SDS011;8567;52.540;6.434;2022-07-01T09:08:15;7.72;;;7.32;;
16900;SDS011;8567;52.540;6.434;2022-07-01T09:10:42;7.75;;;7.15;;
16900;SDS011;8567;52.540;6.434;2022-07-01T09:13:09;7.60;;;7.15;;
16900;SDS011;8567;52.540;6.434;2022-07-01T09:15:39;7.10;;;6.70;;
16900;SDS011;8567;52.540;6.434;2022-07-01T09:18:09;8.18;;;7.70;;
16900;SDS011;8567;52.540;6.434;2022-07-01T09:20:39;7.43;;;7.03;;
16900;SDS011;8567;52.540;6.434;2022-07-01T09:23:08;7.50;;;7.10;;
16900;SDS011;8567;52.540;6.434;2022-07-01T09:25:37;7.30;;;6.93;;
16900;SDS011;8567;52.540;6.434;2022-07-01T09:28:09;7.07;;;6.68;;
16900;SDS011;8567;52.540;6.434;2022-07-01T09:30:39;8.40;;;8.00;;
16900;SDS011;8567;52.540;6.434;2022-07-01T09:33:08;7.47;;;7.07;;
16900;SDS011;8567;52.540;6.434;2022-07-01T09:35:37;7.75;;;7.35;;
16900;SDS011;8567;52.540;6.434;2022-07-01T09:38:04;7.45;;;7.05;;
16900;SDS011;8567;52.540;6.434;2022-07-01T09:40:46;7.28;;;6.88;;
16900;SDS011;8567;52.540;6.434;2022-07-01T09:43:18;6.43;;;6.10;;
16900;SDS011;8567;52.540;6.434;2022-07-01T09:45:50;7.45;;;6.95;;
16900;SDS011;8567;52.540;6.434;2022-07-01T09:48:18;6.85;;;6.43;;
16900;SDS011;8567;52.540;6.434;2022-07-01T09:50:46;7.45;;;7.05;;
16900;SDS011;8567;52.540;6.434;2022-07-01T09:53:13;7.93;;;7.43;;
16900;SDS011;8567;52.540;6.434;2022-07-01T09:55:40;7.30;;;6.70;;
16900;SDS011;8567;52.540;6.434;2022-07-01T09:58:07;7.20;;;6.80;;
16900;SDS011;8567;52.540;6.434;2022-07-01T10:00:34;7.28;;;6.78;;
16900;SDS011;8567;52.540;6.434;2022-07-01T10:03:04;8.32;;;7.93;;
16900;SDS011;8567;52.540;6.434;2022-07-01T10:05:36;7.82;;;7.25;;
16900;SDS011;8567;52.540;6.434;2022-07-01T10:08:22;6.75;;;6.32;;
16900;SDS011;8567;52.540;6.434;2022-07-01T10:11:22;6.50;;;6.00;;
16900;SDS011;8567;52.540;6.434;2022-07-01T10:14:03;6.78;;;6.25;;
16900;SDS011;8567;52.540;6.434;2022-07-01T10:16:31;7.00;;;6.50;;
16900;SDS011;8567;52.540;6.434;2022-07-01T10:19:00;6.47;;;6.18;;
16900;SDS011;8567;52.540;6.434;2022-07-01T10:21:50;6.72;;;6.32;;
16900;SDS011;8567;52.540;6.434;2022-07-01T10:24:19;6.55;;;6.25;;
16900;SDS011;8567;52.540;6.434;2022-07-01T10:26:46;13.35;;;12.68;;
16900;SDS011;8567;52.540;6.434;2022-07-01T10:29:29;19.20;;;18.27;;
16900;SDS011;8567;52.540;6.434;2022-07-01T10:32:01;20.30;;;19.30;;
16900;SDS011;8567;52.540;6.434;2022-07-01T10:34:34;19.55;;;18.33;;
16900;SDS011;8567;52.540;6.434;2022-07-01T10:37:03;21.02;;;19.98;;
16900;SDS011;8567;52.540;6.434;2022-07-01T10:42:26;22.15;;;21.05;;
16900;SDS011;8567;52.540;6.434;2022-07-01T10:47:43;22.38;;;21.27;;
16900;SDS011;8567;52.540;6.434;2022-07-01T10:50:11;24.52;;;23.27;;
16900;SDS011;8567;52.540;6.434;2022-07-01T10:55:35;25.40;;;24.10;;
16900;SDS011;8567;52.540;6.434;2022-07-01T10:58:03;23.77;;;22.60;;
16900;SDS011;8567;52.540;6.434;2022-07-01T11:00:31;24.77;;;23.48;;
16900;SDS011;8567;52.540;6.434;2022-07-01T11:03:14;24.45;;;23.25;;
16900;SDS011;8567;52.540;6.434;2022-07-01T11:05:47;23.42;;;22.23;;
16900;SDS011;8567;52.540;6.434;2022-07-01T11:08:16;24.50;;;23.30;;
16900;SDS011;8567;52.540;6.434;2022-07-01T11:10:42;23.80;;;22.60;;
16900;SDS011;8567;52.540;6.434;2022-07-01T11:13:12;23.17;;;22.05;;
16900;SDS011;8567;52.540;6.434;2022-07-01T11:15:40;23.35;;;22.15;;
16900;SDS011;8567;52.540;6.434;2022-07-01T11:18:10;22.52;;;21.42;;
16900;SDS011;8567;52.540;6.434;2022-07-01T11:20:38;22.48;;;21.38;;
16900;SDS011;8567;52.540;6.434;2022-07-01T11:23:06;21.30;;;20.23;;
16900;SDS011;8567;52.540;6.434;2022-07-01T11:25:33;21.38;;;20.30;;
16900;SDS011;8567;52.540;6.434;2022-07-01T11:28:01;22.60;;;21.50;;
16900;SDS011;8567;52.540;6.434;2022-07-01T11:30:28;22.10;;;21.00;;
16900;SDS011;8567;52.540;6.434;2022-07-01T11:32:55;22.05;;;20.95;;
16900;SDS011;8567;52.540;6.434;2022-07-01T11:35:24;21.48;;;20.38;;
16900;SDS011;8567;52.540;6.434;2022-07-01T11:38:12;21.17;;;20.17;;
16900;SDS011;8567;52.540;6.434;2022-07-01T11:40:57;21.05;;;19.95;;
16900;SDS011;8567;52.540;6.434;2022-07-01T11:43:27;21.58;;;20.48;;
16900;SDS011;8567;52.540;6.434;2022-07-01T11:45:56;21.33;;;20.33;;
16900;SDS011;8567;52.540;6.434;2022-07-01T11:48:31;22.25;;;21.10;;
16900;SDS011;8567;52.540;6.434;2022-07-01T11:51:04;20.60;;;19.60;;
16900;SDS011;8567;52.540;6.434;2022-07-01T11:53:34;20.55;;;19.52;;
16900;SDS011;8567;52.540;6.434;2022-07-01T11:56:01;19.63;;;18.58;;
16900;SDS011;8567;52.540;6.434;2022-07-01T11:58:41;20.23;;;19.13;;
16900;SDS011;8567;52.540;6.434;2022-07-01T12:01:08;20.65;;;19.45;;
16900;SDS011;8567;52.540;6.434;2022-07-01T12:03:36;19.85;;;18.88;;
16900;SDS011;8567;52.540;6.434;2022-07-01T12:06:03;19.83;;;18.83;;
16900;SDS011;8567;52.540;6.434;2022-07-01T12:08:31;20.67;;;19.58;;
16900;SDS011;8567;52.540;6.434;2022-07-01T12:10:59;20.08;;;19.08;;
16900;SDS011;8567;52.540;6.434;2022-07-01T12:13:26;19.98;;;18.98;;
16900;SDS011;8567;52.540;6.434;2022-07-01T12:15:53;20.55;;;19.55;;
16900;SDS011;8567;52.540;6.434;2022-07-01T12:18:20;20.83;;;19.83;;
16900;SDS011;8567;52.540;6.434;2022-07-01T12:20:47;20.50;;;19.48;;
16900;SDS011;8567;52.540;6.434;2022-07-01T12:23:15;19.88;;;18.90;;
16900;SDS011;8567;52.540;6.434;2022-07-01T12:25:46;19.77;;;18.67;;
16900;SDS011;8567;52.540;6.434;2022-07-01T12:28:28;20.48;;;19.38;;
16900;SDS011;8567;52.540;6.434;2022-07-01T12:31:01;20.33;;;19.33;;
16900;SDS011;8567;52.540;6.434;2022-07-01T12:33:28;22.60;;;21.52;;
16900;SDS011;8567;52.540;6.434;2022-07-01T12:35:55;21.00;;;19.80;;
16900;SDS011;8567;52.540;6.434;2022-07-01T12:38:22;21.98;;;20.85;;
16900;SDS011;8567;52.540;6.434;2022-07-01T12:40:49;20.45;;;19.45;;
16900;SDS011;8567;52.540;6.434;2022-07-01T12:43:25;21.17;;;20.15;;
16900;SDS011;8567;52.540;6.434;2022-07-01T12:46:01;19.48;;;18.58;;
16900;SDS011;8567;52.540;6.434;2022-07-01T12:48:28;19.90;;;18.90;;
16900;SDS011;8567;52.540;6.434;2022-07-01T12:50:56;18.58;;;17.67;;
16900;SDS011;8567;52.540;6.434;2022-07-01T12:53:24;19.50;;;18.60;;
16900;SDS011;8567;52.540;6.434;2022-07-01T12:55:55;19.40;;;18.42;;
16900;SDS011;8567;52.540;6.434;2022-07-01T12:58:24;19.95;;;18.95;;
16900;SDS011;8567;52.540;6.434;2022-07-01T13:00:52;21.27;;;20.20;;
16900;SDS011;8567;52.540;6.434;2022-07-01T13:03:23;19.48;;;18.52;;
16900;SDS011;8567;52.540;6.434;2022-07-01T13:05:51;21.05;;;20.00;;
16900;SDS011;8567;52.540;6.434;2022-07-01T13:08:19;20.95;;;19.88;;
16900;SDS011;8567;52.540;6.434;2022-07-01T13:10:46;20.55;;;19.45;;
16900;SDS011;8567;52.540;6.434;2022-07-01T13:13:14;19.35;;;18.38;;
16900;SDS011;8567;52.540;6.434;2022-07-01T13:15:42;20.90;;;19.88;;
16900;SDS011;8567;52.540;6.434;2022-07-01T13:18:10;19.98;;;18.88;;
16900;SDS011;8567;52.540;6.434;2022-07-01T13:20:40;20.58;;;19.50;;
16900;SDS011;8567;52.540;6.434;2022-07-01T13:23:07;20.80;;;19.80;;
16900;SDS011;8567;52.540;6.434;2022-07-01T13:25:34;18.38;;;17.48;;
16900;SDS011;8567;52.540;6.434;2022-07-01T13:28:02;19.50;;;18.58;;
16900;SDS011;8567;52.540;6.434;2022-07-01T13:30:29;19.75;;;18.77;;
16900;SDS011;8567;52.540;6.434;2022-07-01T13:32:56;18.73;;;17.83;;
16900;SDS011;8567;52.540;6.434;2022-07-01T13:35:23;18.15;;;17.30;;
16900;SDS011;8567;52.540;6.434;2022-07-01T13:37:51;17.85;;;16.95;;
16900;SDS011;8567;52.540;6.434;2022-07-01T13:40:18;18.30;;;17.40;;
16900;SDS011;8567;52.540;6.434;2022-07-01T13:42:46;17.60;;;16.77;;
16900;SDS011;8567;52.540;6.434;2022-07-01T13:45:13;18.23;;;17.33;;
16900;SDS011;8567;52.540;6.434;2022-07-01T13:47:40;19.98;;;18.98;;
16900;SDS011;8567;52.540;6.434;2022-07-01T13:50:08;18.92;;;18.02;;
16900;SDS011;8567;52.540;6.434;2022-07-01T13:52:37;18.08;;;17.17;;
16900;SDS011;8567;52.540;6.434;2022-07-01T13:55:06;17.95;;;17.10;;
16900;SDS011;8567;52.540;6.434;2022-07-01T13:57:33;18.85;;;17.95;;
16900;SDS011;8567;52.540;6.434;2022-07-01T14:00:00;18.80;;;17.90;;
16900;SDS011;8567;52.540;6.434;2022-07-01T14:02:27;18.42;;;17.52;;
16900;SDS011;8567;52.540;6.434;2022-07-01T14:04:54;18.50;;;17.63;;
16900;SDS011;8567;52.540;6.434;2022-07-01T14:07:21;19.00;;;18.10;;
16900;SDS011;8567;52.540;6.434;2022-07-01T14:09:48;18.92;;;17.83;;
16900;SDS011;8567;52.540;6.434;2022-07-01T14:12:16;19.05;;;18.15;;
16900;SDS011;8567;52.540;6.434;2022-07-01T14:14:42;18.75;;;17.85;;
16900;SDS011;8567;52.540;6.434;2022-07-01T14:17:09;18.00;;;17.15;;
16900;SDS011;8567;52.540;6.434;2022-07-01T14:19:36;18.58;;;17.67;;
16900;SDS011;8567;52.540;6.434;2022-07-01T14:22:03;18.85;;;17.95;;
16900;SDS011;8567;52.540;6.434;2022-07-01T14:24:30;17.58;;;16.75;;
16900;SDS011;8567;52.540;6.434;2022-07-01T14:26:57;17.92;;;17.08;;
16900;SDS011;8567;52.540;6.434;2022-07-01T14:29:26;18.48;;;17.58;;
16900;SDS011;8567;52.540;6.434;2022-07-01T14:31:53;19.83;;;18.83;;
16900;SDS011;8567;52.540;6.434;2022-07-01T14:34:20;18.75;;;17.85;;
16900;SDS011;8567;52.540;6.434;2022-07-01T14:36:47;17.98;;;17.10;;
16900;SDS011;8567;52.540;6.434;2022-07-01T14:39:14;18.85;;;17.95;;
16900;SDS011;8567;52.540;6.434;2022-07-01T14:41:40;18.40;;;17.50;;
16900;SDS011;8567;52.540;6.434;2022-07-01T14:44:07;18.90;;;18.00;;
16900;SDS011;8567;52.540;6.434;2022-07-01T14:46:35;17.95;;;17.05;;
16900;SDS011;8567;52.540;6.434;2022-07-01T14:49:02;19.67;;;18.67;;
16900;SDS011;8567;52.540;6.434;2022-07-01T14:51:29;18.67;;;17.67;;
16900;SDS011;8567;52.540;6.434;2022-07-01T14:53:56;17.42;;;16.63;;
16900;SDS011;8567;52.540;6.434;2022-07-01T14:56:22;18.95;;;18.05;;
16900;SDS011;8567;52.540;6.434;2022-07-01T14:58:49;19.52;;;18.63;;
16900;SDS011;8567;52.540;6.434;2022-07-01T15:01:16;18.48;;;17.58;;
16900;SDS011;8567;52.540;6.434;2022-07-01T15:03:44;19.25;;;17.90;;
16900;SDS011;8567;52.540;6.434;2022-07-01T15:06:11;19.15;;;18.25;;
16900;SDS011;8567;52.540;6.434;2022-07-01T15:08:38;18.50;;;17.60;;